TNCC/CUR METAR and TAF weather

Enter ICAO airport designator
Station Type Date Time Source
TNCC METAR 2020/07/11 19:00 UTC NOAA

TNCC 111900Z 10014KT 9999 FEW022 31/23 Q1012 NOSIG=


Station Type Date Time Source
TNCC Decoded METAR 2020/07/11 19:00 UTC NOAA

Hato Airport, Curacao, Netherlands Antilles (TNCC) 12-12N 068-58W 67M
Jul 11, 2020 - 03:00 PM EDT / 2020.07.11 1900 UTC
Wind: from the E (100 degrees) at 16 MPH (14 KT):0
Visibility: greater than 7 mile(s):0
Sky conditions: mostly clear
Temperature: 87 F (31 C)
Heat index: 93.9 F (34.4 C):1
Dew Point: 73 F (23 C)
Relative Humidity: 62%
Pressure (altimeter): 29.88 in. Hg (1012 hPa)
ob: TNCC 111900Z 10014KT 9999 FEW022 31/23 Q1012 NOSIG=
cycle: 19

Station Type Date Time Source
TNCC TAF 2020/07/11 18:26 UTC NOAA

TAF TNCC 111700Z 1118/1218 11014KT 9999 SCT025
TEMPO 1118/1218 10008G18KT 4000 SHRA BKN015

Example: see airport list